Wetterdaten: Woche 31.12.07 - 06.01.08 (KW1)
Datum Zeit Temp. a Sch. Temp. a Son. Temp. a Bod. Feuchte a. Luftdruck Regen Wind Richtung Sonnenschein Helligkeit Taupunkt Windchill
31.12.2007 00:00 2,6 C 2,3 C 0,8 C 84 % 1025 hPa 0,0 l/m 2,5 m/s (2 Bft) W-SW 0,00 h 0 lux 0,2 C 0,2 C
31.12.2007 01:00 2,6 C 2,2 C 0,7 C 84 % 1025 hPa 0,0 l/m 2,7 m/s (2 Bft) W-SW 0,00 h 0 lux 0,2 C -0,4 C
31.12.2007 02:00 2,6 C 2,3 C 0,6 C 84 % 1025 hPa 0,0 l/m 1,4 m/s (1 Bft) W-SW 0,00 h 0 lux 0,2 C 1,8 C
31.12.2007 03:00 2,1 C 2,0 C 0,4 C 86 % 1026 hPa 0,4 l/m 1,7 m/s (2 Bft) W-SW 0,00 h 0 lux 0,0 C 1,5 C
31.12.2007 04:00 1,2 C 1,1 C -0,5 C 90 % 1026 hPa 0,0 l/m 1,6 m/s (2 Bft) SW 0,00 h 0 lux -0,3 C 0,7 C
31.12.2007 05:00 0,7 C 0,6 C -0,9 C 93 % 1026 hPa 0,0 l/m 0,7 m/s (1 Bft) W-SW 0,00 h 0 lux -0,3 C 0,7 C
31.12.2007 06:00 0,1 C 0,3 C -0,9 C 94 % 1026 hPa 0,0 l/m 0,0 m/s (0 Bft) N 0,00 h 0 lux -0,7 C 0,1 C
31.12.2007 07:00 -0,9 C -0,8 C -1,4 C 94 % 1026 hPa 0,0 l/m 0,0 m/s (0 Bft) N 0,00 h 0 lux -1,7 C -0,9 C
31.12.2007 08:00 -0,8 C -0,8 C -1,5 C 95 % 1027 hPa 0,0 l/m 0,1 m/s (0 Bft) S-SO 0,00 h 358 lux -1,5 C -0,8 C
31.12.2007 09:00 -0,1 C -0,2 C -0,9 C 95 % 1027 hPa 0,0 l/m 0,0 m/s (0 Bft) N 0,00 h 2,66 klux -0,8 C -0,1 C
31.12.2007 10:00 0,6 C 0,7 C -0,6 C 95 % 1027 hPa 0,0 l/m 0,1 m/s (0 Bft) S 0,25 h 12,1 klux -0,1 C 0,6 C
31.12.2007 11:00 2,1 C 2,0 C 0,3 C 94 % 1028 hPa 0,0 l/m 0,2 m/s (0 Bft) SO 0,42 h 18,7 klux 1,3 C 2,1 C
31.12.2007 12:00 3,1 C 3,6 C 2,0 C 83 % 1027 hPa 0,0 l/m 1,9 m/s (2 Bft) W 0,17 h 13,2 klux 0,4 C 1,3 C
31.12.2007 13:00 3,5 C 3,9 C 2,0 C 73 % 1027 hPa 0,0 l/m 1,2 m/s (1 Bft) SW 0,42 h 18,5 klux -0,9 C 3,2 C
31.12.2007 14:00 3,4 C 3,7 C 1,7 C 70 % 1027 hPa 0,0 l/m 1,3 m/s (1 Bft) SW 0,25 h 10,3 klux -1,5 C 3,0 C
31.12.2007 15:00 1,5 C 2,2 C 0,1 C 83 % 1027 hPa 0,0 l/m 0,0 m/s (0 Bft) N 0,00 h 4,30 klux -1,1 C 1,5 C
31.12.2007 16:00 0,8 C 1,2 C -0,7 C 88 % 1027 hPa 0,0 l/m 0,0 m/s (0 Bft) N 0,00 h 278 lux -0,9 C 0,8 C
31.12.2007 17:00 0,3 C 0,3 C -1,0 C 91 % 1027 hPa 0,0 l/m 0,0 m/s (0 Bft) N 0,00 h 11 lux -1,1 C 0,3 C
31.12.2007 18:00 -0,1 C 0,0 C -1,3 C 92 % 1027 hPa 0,0 l/m 0,0 m/s (0 Bft) N 0,00 h 0 lux -1,2 C -0,1 C
31.12.2007 19:00 -0,7 C -0,6 C -1,7 C 93 % 1027 hPa 0,0 l/m 0,0 m/s (0 Bft) N 0,00 h 0 lux -1,7 C -0,7 C
31.12.2007 20:00 -1,5 C -1,4 C -2,1 C 94 % 1027 hPa 0,0 l/m 0,0 m/s (0 Bft) N 0,00 h 0 lux -2,4 C -1,5 C
31.12.2007 21:00 -1,4 C -1,3 C -1,7 C 94 % 1027 hPa 0,0 l/m 0,1 m/s (0 Bft) SW 0,00 h 0 lux -2,1 C -1,4 C
31.12.2007 22:00 -1,5 C -1,2 C -1,7 C 95 % 1027 hPa 0,0 l/m 0,0 m/s (0 Bft) N 0,00 h 0 lux -2,2 C -1,5 C
31.12.2007 23:00 -2,1 C -1,6 C -2,3 C 95 % 1026 hPa 0,0 l/m 0,1 m/s (0 Bft) SO 0,00 h 0 lux -2,8 C -2,1 C
01.01.2008 00:00 -2,5 C -2,3 C -2,5 C 95 % 1026 hPa 0,0 l/m 0,2 m/s (0 Bft) SO 0,00 h 0 lux -3,2 C -2,5 C
01.01.2008 01:00 -2,1 C -2,0 C -2,3 C 95 % 1026 hPa 0,0 l/m 0,8 m/s (1 Bft) SW 0,00 h 0 lux -2,8 C -2,1 C
01.01.2008 02:00 -2,2 C -1,9 C -2,4 C 95 % 1026 hPa 0,0 l/m 0,6 m/s (1 Bft) SW 0,00 h 0 lux -2,9 C -2,2 C
01.01.2008 03:00 -2,5 C -2,1 C -2,6 C 95 % 1025 hPa 0,0 l/m 0,0 m/s (0 Bft) N 0,00 h 0 lux -3,2 C -2,5 C
01.01.2008 04:00 -2,8 C -2,4 C -2,9 C 94 % 1025 hPa 0,0 l/m 0,0 m/s (0 Bft) N 0,00 h 0 lux -3,7 C -2,8 C
01.01.2008 05:00 -3,2 C -2,7 C -3,2 C 93 % 1025 hPa 0,0 l/m 0,9 m/s (1 Bft) O-SO 0,00 h 0 lux -4,2 C -3,2 C
01.01.2008 06:00 -3,3 C -2,9 C -3,4 C 93 % 1025 hPa 0,0 l/m 0,2 m/s (0 Bft) O-SO 0,00 h 0 lux -4,3 C -3,3 C
01.01.2008 07:00 -3,0 C -2,9 C -3,5 C 92 % 1025 hPa 0,0 l/m 0,0 m/s (0 Bft) N 0,00 h 0 lux -4,1 C -3,0 C
01.01.2008 08:00 -3,0 C -2,9 C -3,5 C 91 % 1025 hPa 0,0 l/m 0,0 m/s (0 Bft) N 0,00 h 362 lux -4,3 C -3,0 C
01.01.2008 09:00 -2,8 C -2,7 C -3,1 C 91 % 1025 hPa 0,0 l/m 0,0 m/s (0 Bft) N 0,00 h 2,24 klux -4,1 C -2,8 C
01.01.2008 10:00 -2,3 C -2,1 C -2,5 C 90 % 1025 hPa 0,0 l/m 0,0 m/s (0 Bft) N 0,00 h 5,60 klux -3,6 C -2,3 C
01.01.2008 11:00 -1,7 C -1,6 C -2,0 C 90 % 1025 hPa 0,0 l/m 0,0 m/s (0 Bft) N 0,00 h 6,76 klux -3,1 C -1,7 C
01.01.2008 12:00 -1,2 C -0,6 C -1,5 C 88 % 1024 hPa 0,0 l/m 0,0 m/s (0 Bft) N 0,00 h 9,7 klux -3,0 C -1,2 C
01.01.2008 13:00 -1,0 C 0,0 C -1,3 C 86 % 1024 hPa 0,0 l/m 0,0 m/s (0 Bft) N 0,00 h 8,67 klux -3,0 C -1,0 C
01.01.2008 14:00 -1,0 C 0,0 C -1,2 C 86 % 1024 hPa 0,0 l/m 0,5 m/s (1 Bft) SO 0,00 h 6,30 klux -3,0 C -1,0 C
01.01.2008 15:00 -1,0 C -0,2 C -1,3 C 88 % 1023 hPa 0,0 l/m 0,0 m/s (0 Bft) N 0,00 h 3,42 klux -2,7 C -1,0 C
01.01.2008 16:00 -1,0 C -0,6 C -1,6 C 88 % 1023 hPa 0,0 l/m 0,2 m/s (0 Bft) SO 0,00 h 351 lux -2,7 C -1,0 C
01.01.2008 17:00 -1,2 C -1,0 C -1,9 C 89 % 1023 hPa 0,0 l/m 0,2 m/s (0 Bft) SO 0,00 h 11 lux -2,8 C -1,2 C
01.01.2008 18:00 -1,7 C -1,6 C -2,6 C 90 % 1023 hPa 0,0 l/m 0,0 m/s (0 Bft) N 0,00 h 0 lux -3,1 C -1,7 C
01.01.2008 19:00 -2,2 C -2,1 C -3,0 C 90 % 1023 hPa 0,0 l/m 0,0 m/s (0 Bft) N 0,00 h 0 lux -3,6 C -2,2 C
01.01.2008 20:00 -2,5 C -2,5 C -3,4 C 90 % 1023 hPa 0,0 l/m 0,0 m/s (0 Bft) N 0,00 h 0 lux -3,9 C -2,5 C
01.01.2008 21:00 -2,9 C -2,9 C -3,7 C 89 % 1023 hPa 0,0 l/m 0,0 m/s (0 Bft) N 0,00 h 0 lux -4,4 C -2,9 C
01.01.2008 22:00 -2,9 C -2,9 C -3,6 C 89 % 1023 hPa 0,0 l/m 0,0 m/s (0 Bft) N 0,00 h 0 lux -4,4 C -2,9 C
01.01.2008 23:00 -2,9 C -2,9 C -3,7 C 89 % 1023 hPa 0,0 l/m 0,0 m/s (0 Bft) N 0,00 h 0 lux -4,5 C -2,9 C
02.01.2008 00:00 -3,2 C -3,2 C -3,8 C 89 % 1023 hPa 0,0 l/m 0,0 m/s (0 Bft) N 0,00 h 0 lux -4,7 C -3,2 C
02.01.2008 01:00 -3,7 C -3,4 C -4,2 C 90 % 1023 hPa 0,0 l/m 0,0 m/s (0 Bft) N 0,00 h 0 lux -5,1 C -3,7 C
02.01.2008 02:00 -4,3 C -4,1 C -4,8 C 89 % 1022 hPa 0,0 l/m 0,0 m/s (0 Bft) N 0,00 h 0 lux -5,8 C -4,3 C
02.01.2008 03:00 -3,8 C -3,7 C -4,3 C 89 % 1022 hPa 0,0 l/m 0,0 m/s (0 Bft) N 0,00 h 0 lux -5,4 C -3,8 C
02.01.2008 04:00 -3,2 C -3,4 C -3,9 C 89 % 1022 hPa 0,0 l/m 0,3 m/s (1 Bft) O 0,00 h 0 lux -4,7 C -3,2 C
02.01.2008 05:00 -2,5 C -2,9 C -3,5 C 90 % 1022 hPa 0,0 l/m 0,3 m/s (0 Bft) O-SO 0,00 h 0 lux -4,0 C -2,5 C
02.01.2008 06:00 -2,8 C -3,0 C -3,6 C 89 % 1022 hPa 0,0 l/m 0,1 m/s (0 Bft) O-SO 0,00 h 0 lux -4,3 C -2,8 C
02.01.2008 07:00 -2,5 C -2,7 C -3,3 C 89 % 1021 hPa 0,0 l/m 0,5 m/s (1 Bft) O 0,00 h 0 lux -4,1 C -2,7 C
02.01.2008 08:00 -2,0 C -2,3 C -2,9 C 89 % 1021 hPa 0,0 l/m 2,3 m/s (2 Bft) O-SO 0,00 h 288 lux -3,6 C -3,9 C
02.01.2008 09:00 -1,8 C -1,9 C -2,7 C 86 % 1021 hPa 0,0 l/m 2,7 m/s (2 Bft) O-SO 0,00 h 2,94 klux -3,8 C -5,1 C
02.01.2008 10:00 -1,7 C -1,4 C -2,2 C 84 % 1021 hPa 0,0 l/m 2,6 m/s (2 Bft) O-SO 0,00 h 7,15 klux -4,1 C -4,7 C
02.01.2008 11:00 -1,6 C -1,3 C -1,9 C 83 % 1021 hPa 0,0 l/m 2,9 m/s (2 Bft) O-SO 0,58 h 22,2 klux -4,1 C -5,5 C
02.01.2008 12:00 -1,1 C -0,7 C -1,3 C 77 % 1020 hPa 0,0 l/m 4,6 m/s (3 Bft) O-SO 0,08 h 14,2 klux -4,6 C -9,2 C
02.01.2008 13:00 -0,9 C -0,2 C -1,2 C 75 % 1019 hPa 0,0 l/m 4,7 m/s (3 Bft) O 0,08 h 13,7 klux -4,8 C -9,0 C
02.01.2008 14:00 -0,6 C 0,1 C -1,4 C 70 % 1018 hPa 0,0 l/m 4,1 m/s (3 Bft) O 0,50 h 14,2 klux -5,4 C -7,5 C
02.01.2008 15:00 -0,6 C -0,2 C -1,3 C 66 % 1018 hPa 0,0 l/m 4,7 m/s (3 Bft) O 0,00 h 3,87 klux -6,2 C -8,6 C
02.01.2008 16:00 -1,4 C -1,4 C -2,5 C 64 % 1017 hPa 0,0 l/m 6,1 m/s (4 Bft) O 0,00 h 605 lux -7,4 C -12,3 C
02.01.2008 17:00 -2,2 C -2,6 C -3,3 C 65 % 1017 hPa 0,0 l/m 4,3 m/s (3 Bft) O 0,00 h 13 lux -7,9 C -9,7 C
02.01.2008 18:00 -2,3 C -2,9 C -3,2 C 67 % 1016 hPa 0,0 l/m 3,8 m/s (3 Bft) O-SO 0,00 h 0 lux -7,6 C -8,9 C
02.01.2008 19:00 -2,2 C -2,7 C -3,2 C 72 % 1016 hPa 0,0 l/m 4,8 m/s (3 Bft) O 0,00 h 0 lux -6,5 C -10,9 C
02.01.2008 20:00 -2,0 C -2,5 C -2,9 C 70 % 1015 hPa 0,0 l/m 4,5 m/s (3 Bft) O 0,00 h 0 lux -6,8 C -10,2 C
02.01.2008 21:00 -1,8 C -2,0 C -2,6 C 61 % 1015 hPa 0,0 l/m 5,5 m/s (4 Bft) O 0,00 h 0 lux -8,3 C -11,8 C
02.01.2008 22:00 -2,0 C -2,0 C -2,6 C 61 % 1014 hPa 0,0 l/m 5,1 m/s (3 Bft) O 0,00 h 0 lux -8,4 C -11,3 C
02.01.2008 23:00 -2,0 C -2,0 C -2,6 C 63 % 1013 hPa 0,0 l/m 5,3 m/s (3 Bft) O 0,00 h 0 lux -8,1 C -11,6 C
03.01.2008 00:00 -1,9 C -2,0 C -2,6 C 63 % 1013 hPa 0,0 l/m 5,2 m/s (3 Bft) O-SO 0,00 h 0 lux -8,1 C -11,4 C
03.01.2008 01:00 -1,8 C -1,9 C -2,5 C 60 % 1012 hPa 0,0 l/m 5,7 m/s (4 Bft) O-SO 0,00 h 0 lux -8,6 C -12,1 C
03.01.2008 02:00 -1,8 C -1,8 C -2,5 C 59 % 1011 hPa 0,0 l/m 5,0 m/s (3 Bft) O-SO 0,00 h 0 lux -8,8 C -10,8 C
03.01.2008 03:00 -1,7 C -1,8 C -2,4 C 57 % 1011 hPa 0,0 l/m 5,0 m/s (3 Bft) O-SO 0,00 h 0 lux -9,1 C -10,6 C
03.01.2008 04:00 -1,8 C -1,8 C -2,5 C 55 % 1010 hPa 0,0 l/m 6,4 m/s (4 Bft) O-SO 0,00 h 0 lux -9,8 C -13,1 C
03.01.2008 05:00 -2,0 C -1,8 C -2,6 C 52 % 1010 hPa 0,0 l/m 6,6 m/s (4 Bft) O-SO 0,00 h 0 lux -10,4 C -13,8 C
03.01.2008 06:00 -2,2 C -2,0 C -2,7 C 55 % 1009 hPa 0,0 l/m 6,8 m/s (4 Bft) O-SO 0,00 h 0 lux -10,0 C -14,2 C
03.01.2008 07:00 -2,3 C -2,1 C -2,8 C 56 % 1009 hPa 0,0 l/m 6,7 m/s (4 Bft) O-SO 0,00 h 0 lux -9,8 C -14,4 C
03.01.2008 08:00 -2,3 C -2,1 C -2,7 C 57 % 1009 hPa 0,0 l/m 5,5 m/s (3 Bft) O-SO 0,00 h 244 lux -9,7 C -12,3 C
03.01.2008 09:00 -2,1 C -2,0 C -2,5 C 56 % 1008 hPa 0,0 l/m 5,8 m/s (4 Bft) O-SO 0,00 h 1,86 klux -9,7 C -12,7 C
03.01.2008 10:00 -1,8 C -1,4 C -2,1 C 56 % 1008 hPa 0,0 l/m 5,0 m/s (3 Bft) O-SO 0,00 h 8,48 klux -9,3 C -10,8 C
03.01.2008 11:00 -1,3 C -0,8 C -1,5 C 55 % 1008 hPa 0,0 l/m 5,7 m/s (4 Bft) O-SO 0,33 h 17,3 klux -9,1 C -11,3 C
03.01.2008 12:00 -0,7 C 0,0 C -0,8 C 51 % 1008 hPa 0,0 l/m 6,3 m/s (4 Bft) O-SO 0,33 h 20,0 klux -9,5 C -11,6 C
03.01.2008 13:00 -0,4 C 0,4 C -0,7 C 50 % 1007 hPa 0,0 l/m 6,1 m/s (4 Bft) O-SO 0,00 h 11,1 klux -9,6 C -10,9 C
03.01.2008 14:00 -0,3 C 0,1 C -0,6 C 49 % 1007 hPa 0,0 l/m 5,8 m/s (4 Bft) O-SO 0,00 h 5,89 klux -9,7 C -10,4 C
03.01.2008 15:00 -0,3 C -0,1 C -0,8 C 50 % 1007 hPa 0,0 l/m 5,5 m/s (3 Bft) O-SO 0,00 h 2,54 klux -9,4 C -9,7 C
03.01.2008 16:00 -0,4 C -0,3 C -1,0 C 51 % 1008 hPa 0,0 l/m 4,3 m/s (3 Bft) O-SO 0,00 h 267 lux -9,3 C -7,6 C
03.01.2008 17:00 -0,4 C -0,4 C -1,2 C 50 % 1008 hPa 0,0 l/m 4,9 m/s (3 Bft) O 0,00 h 28 lux -9,5 C -9,0 C
03.01.2008 18:00 -0,7 C -0,8 C -1,6 C 51 % 1008 hPa 0,0 l/m 4,3 m/s (3 Bft) O 0,00 h 0 lux -9,6 C -8,1 C
03.01.2008 19:00 -0,5 C -0,7 C -1,4 C 50 % 1008 hPa 0,0 l/m 4,7 m/s (3 Bft) O 0,00 h 0 lux -9,6 C -8,6 C
03.01.2008 20:00 -0,5 C -0,6 C -1,3 C 51 % 1009 hPa 0,0 l/m 4,8 m/s (3 Bft) O 0,00 h 0 lux -9,5 C -8,7 C
03.01.2008 21:00 -0,5 C -0,6 C -1,4 C 52 % 1009 hPa 0,0 l/m 4,3 m/s (3 Bft) O 0,00 h 0 lux -9,2 C -7,8 C
03.01.2008 22:00 -0,6 C -0,6 C -1,3 C 53 % 1009 hPa 0,0 l/m 4,3 m/s (3 Bft) O 0,00 h 0 lux -9,0 C -7,9 C
03.01.2008 23:00 -0,7 C -0,7 C -1,4 C 53 % 1009 hPa 0,0 l/m 3,8 m/s (3 Bft) O-SO 0,00 h 0 lux -9,0 C -6,8 C
04.01.2008 00:00 -1,0 C -1,0 C -1,8 C 55 % 1009 hPa 0,0 l/m 4,6 m/s (3 Bft) O 0,00 h 0 lux -9,0 C -8,9 C
04.01.2008 01:00 -1,7 C -1,7 C -2,6 C 58 % 1010 hPa 0,0 l/m 3,5 m/s (3 Bft) O-SO 0,00 h 0 lux -8,9 C -7,1 C
04.01.2008 02:00 -2,2 C -2,4 C -3,1 C 61 % 1010 hPa 0,0 l/m 3,3 m/s (2 Bft) O-SO 0,00 h 0 lux -8,8 C -7,3 C
04.01.2008 03:00 -3,1 C -3,2 C -4,0 C 64 % 1010 hPa 0,0 l/m 1,4 m/s (1 Bft) O 0,00 h 0 lux -8,9 C -3,8 C
04.01.2008 04:00 -3,5 C -3,6 C -4,3 C 68 % 1010 hPa 0,0 l/m 0,8 m/s (1 Bft) O 0,00 h 0 lux -8,6 C -3,5 C
04.01.2008 05:00 -3,4 C -3,5 C -4,1 C 70 % 1010 hPa 0,0 l/m 1,6 m/s (1 Bft) O 0,00 h 0 lux -8,1 C -4,1 C
04.01.2008 06:00 -2,7 C -3,0 C -3,5 C 67 % 1011 hPa 0,0 l/m 2,1 m/s (2 Bft) O 0,00 h 0 lux -8,0 C -4,7 C
04.01.2008 07:00 -2,9 C -2,7 C -3,6 C 69 % 1011 hPa 0,0 l/m 0,0 m/s (0 Bft) N 0,00 h 0 lux -7,8 C -2,9 C
04.01.2008 08:00 -3,0 C -2,9 C -3,8 C 70 % 1012 hPa 0,0 l/m 0,0 m/s (0 Bft) O 0,00 h 568 lux -7,7 C -3,0 C
04.01.2008 09:00 -2,9 C -2,9 C -3,4 C 71 % 1012 hPa 0,0 l/m 1,1 m/s (1 Bft) O-SO 0,00 h 4,95 klux -7,5 C -3,4 C
04.01.2008 10:00 -1,5 C -1,6 C -2,0 C 64 % 1012 hPa 0,0 l/m 2,7 m/s (2 Bft) O-SO 0,08 h 10,4 klux -7,4 C -5,1 C
04.01.2008 11:00 -0,6 C -0,7 C -1,0 C 58 % 1012 hPa 0,0 l/m 2,8 m/s (2 Bft) O-SO 0,50 h 21,5 klux -7,9 C -4,0 C
04.01.2008 12:00 0,2 C 1,0 C 0,1 C 53 % 1012 hPa 0,0 l/m 3,9 m/s (3 Bft) SO 0,67 h 22,3 klux -8,3 C -6,0 C
04.01.2008 13:00 -0,0 C 0,4 C -0,7 C 55 % 1011 hPa 0,0 l/m 3,3 m/s (2 Bft) O-SO 0,33 h 17,0 klux -8,0 C -4,9 C
04.01.2008 14:00 0,1 C 0,4 C -0,8 C 55 % 1011 hPa 0,0 l/m 2,6 m/s (2 Bft) O-SO 0,33 h 12,4 klux -7,8 C -2,7 C
04.01.2008 15:00 0,1 C 0,3 C -0,9 C 56 % 1011 hPa 0,0 l/m 2,4 m/s (2 Bft) SO 0,17 h 4,98 klux -7,8 C -2,3 C
04.01.2008 16:00 -0,5 C -0,5 C -1,6 C 57 % 1012 hPa 0,0 l/m 1,7 m/s (2 Bft) O 0,08 h 809 lux -8,0 C -1,1 C
04.01.2008 17:00 -1,7 C -1,5 C -2,5 C 63 % 1012 hPa 0,0 l/m 0,7 m/s (1 Bft) O 0,00 h 14 lux -7,7 C -2,0 C
04.01.2008 18:00 -1,6 C -1,5 C -2,1 C 68 % 1012 hPa 0,0 l/m 0,1 m/s (0 Bft) S-SO 0,00 h 0 lux -6,8 C -1,6 C
04.01.2008 19:00 -0,9 C -1,1 C -1,6 C 66 % 1012 hPa 0,0 l/m 1,2 m/s (1 Bft) O 0,00 h 0 lux -6,5 C -2,0 C
04.01.2008 20:00 -0,4 C -0,4 C -1,2 C 62 % 1012 hPa 0,0 l/m 2,7 m/s (2 Bft) O-NO 0,00 h 0 lux -6,8 C -3,4 C
04.01.2008 21:00 -0,3 C -0,2 C -1,3 C 71 % 1012 hPa 0,0 l/m 1,2 m/s (1 Bft) O 0,00 h 0 lux -5,0 C -1,0 C
04.01.2008 22:00 -0,4 C -0,3 C -1,3 C 74 % 1011 hPa 0,0 l/m 4,0 m/s (3 Bft) O 0,00 h 0 lux -4,4 C -6,9 C
04.01.2008 23:00 -0,3 C -0,5 C -1,6 C 72 % 1011 hPa 0,0 l/m 3,9 m/s (3 Bft) O 0,00 h 0 lux -4,8 C -6,5 C
05.01.2008 00:00 -0,5 C -0,8 C -1,9 C 72 % 1010 hPa 0,0 l/m 3,3 m/s (2 Bft) O 0,00 h 0 lux -5,0 C -5,1 C
05.01.2008 01:00 -1,4 C -1,5 C -2,8 C 75 % 1010 hPa 0,0 l/m 0,3 m/s (1 Bft) N-NO 0,00 h 0 lux -5,3 C -1,4 C
05.01.2008 02:00 -2,3 C -2,2 C -3,3 C 81 % 1010 hPa 0,0 l/m 0,2 m/s (0 Bft) O 0,00 h 0 lux -5,1 C -2,3 C
05.01.2008 03:00 -2,1 C -2,2 C -3,1 C 82 % 1010 hPa 0,0 l/m 0,4 m/s (1 Bft) SO 0,00 h 0 lux -4,7 C -2,1 C
05.01.2008 04:00 -2,0 C -2,5 C -3,3 C 84 % 1009 hPa 0,0 l/m 0,5 m/s (1 Bft) O 0,00 h 0 lux -4,3 C -2,0 C
05.01.2008 05:00 -1,0 C -1,8 C -2,4 C 81 % 1008 hPa 0,0 l/m 1,1 m/s (1 Bft) O 0,00 h 0 lux -3,9 C -1,6 C
05.01.2008 06:00 -0,4 C -1,4 C -2,0 C 75 % 1008 hPa 0,0 l/m 3,0 m/s (2 Bft) O 0,00 h 0 lux -4,3 C -4,6 C
05.01.2008 07:00 -0,1 C -0,9 C -1,6 C 74 % 1008 hPa 0,0 l/m 3,0 m/s (2 Bft) O-SO 0,00 h 0 lux -4,1 C -4,2 C
05.01.2008 08:00 1,0 C 0,2 C -0,6 C 74 % 1007 hPa 0,0 l/m 4,1 m/s (3 Bft) O-SO 0,00 h 119 lux -3,2 C -5,4 C
05.01.2008 09:00 1,5 C 0,8 C -0,2 C 81 % 1007 hPa 1,8 l/m 2,9 m/s (2 Bft) O 0,00 h 600 lux -1,4 C -2,1 C
05.01.2008 10:00 2,3 C 1,4 C 0,3 C 88 % 1006 hPa 2,5 l/m 2,2 m/s (2 Bft) O-SO 0,00 h 1,35 klux 0,5 C 0,6 C
05.01.2008 11:00 2,9 C 2,1 C 0,9 C 89 % 1006 hPa 1,1 l/m 2,7 m/s (2 Bft) O-SO 0,00 h 2,32 klux 1,4 C 0,2 C
05.01.2008 12:00 4,1 C 3,3 C 1,9 C 90 % 1006 hPa 0,7 l/m 3,8 m/s (3 Bft) S-SO 0,00 h 2,85 klux 2,6 C -0,9 C
05.01.2008 13:00 4,9 C 4,4 C 2,7 C 87 % 1005 hPa 0,0 l/m 4,9 m/s (3 Bft) S 0,00 h 6,26 klux 2,9 C -2,0 C
05.01.2008 14:00 5,2 C 4,9 C 2,9 C 84 % 1006 hPa 0,0 l/m 2,8 m/s (2 Bft) S-SO 0,00 h 3,59 klux 2,8 C 2,2 C
05.01.2008 15:00 5,0 C 4,7 C 2,9 C 87 % 1006 hPa 0,4 l/m 3,2 m/s (2 Bft) SW 0,00 h 1,44 klux 3,1 C 1,3 C
05.01.2008 16:00 4,8 C 4,5 C 2,6 C 88 % 1006 hPa 0,0 l/m 2,1 m/s (2 Bft) SW 0,00 h 243 lux 2,9 C 3,0 C
05.01.2008 17:00 4,6 C 4,3 C 2,4 C 88 % 1006 hPa 0,4 l/m 3,2 m/s (2 Bft) SW 0,00 h 12 lux 2,8 C 0,8 C
05.01.2008 18:00 4,1 C 4,0 C 1,9 C 88 % 1006 hPa 0,0 l/m 3,0 m/s (2 Bft) SW 0,00 h 0 lux 2,4 C 0,6 C
05.01.2008 19:00 3,7 C 3,2 C 1,2 C 91 % 1006 hPa 0,0 l/m 1,4 m/s (1 Bft) W 0,00 h 0 lux 2,3 C 2,9 C
05.01.2008 20:00 4,1 C 3,4 C 1,8 C 91 % 1006 hPa 0,0 l/m 2,3 m/s (2 Bft) S 0,00 h 0 lux 2,8 C 2,0 C
05.01.2008 21:00 4,3 C 3,8 C 2,2 C 90 % 1006 hPa 0,0 l/m 3,0 m/s (2 Bft) S-SO 0,00 h 0 lux 2,8 C 0,7 C
05.01.2008 22:00 4,7 C 4,2 C 2,7 C 89 % 1005 hPa 0,4 l/m 2,9 m/s (2 Bft) S-SO 0,00 h 0 lux 3,1 C 1,6 C
05.01.2008 23:00 4,7 C 4,1 C 2,8 C 89 % 1004 hPa 0,4 l/m 2,5 m/s (2 Bft) SO 0,00 h 0 lux 3,1 C 2,0 C
06.01.2008 00:00 4,7 C 4,0 C 2,6 C 89 % 1004 hPa 0,4 l/m 1,4 m/s (1 Bft) S-SO 0,00 h 0 lux 3,0 C 3,7 C
06.01.2008 01:00 4,5 C 3,9 C 2,4 C 89 % 1003 hPa 0,7 l/m 1,0 m/s (1 Bft) O-SO 0,00 h 0 lux 2,9 C 4,1 C
06.01.2008 02:00 4,5 C 4,0 C 2,4 C 91 % 1002 hPa 1,4 l/m 0,4 m/s (1 Bft) S-SW 0,00 h 0 lux 3,1 C 4,5 C
06.01.2008 03:00 4,5 C 4,0 C 2,1 C 92 % 1003 hPa 1,8 l/m 0,2 m/s (0 Bft) W 0,00 h 0 lux 3,3 C 4,5 C
06.01.2008 04:00 4,0 C 3,8 C 1,9 C 93 % 1003 hPa 0,0 l/m 0,4 m/s (1 Bft) W 0,00 h 0 lux 2,9 C 4,0 C
06.01.2008 05:00 3,7 C 3,5 C 1,8 C 94 % 1004 hPa 0,0 l/m 0,6 m/s (1 Bft) SW 0,00 h 0 lux 2,9 C 3,7 C
06.01.2008 06:00 3,7 C 3,4 C 2,0 C 94 % 1005 hPa 0,0 l/m 2,7 m/s (2 Bft) W-SW 0,00 h 0 lux 2,8 C 0,6 C
06.01.2008 07:00 4,3 C 3,7 C 2,3 C 90 % 1005 hPa 0,7 l/m 4,9 m/s (3 Bft) W-SW 0,00 h 0 lux 2,7 C -2,8 C
06.01.2008 08:00 4,1 C 3,6 C 2,2 C 88 % 1007 hPa 0,0 l/m 4,6 m/s (3 Bft) W-SW 0,00 h 435 lux 2,2 C -2,6 C
06.01.2008 09:00 4,1 C 3,6 C 2,1 C 86 % 1008 hPa 0,0 l/m 4,6 m/s (3 Bft) W-SW 0,58 h 10,3 klux 1,9 C -2,6 C
06.01.2008 10:00 5,2 C 4,6 C 3,4 C 80 % 1009 hPa 0,0 l/m 4,8 m/s (3 Bft) W-SW 0,75 h 19,5 klux 2,1 C -1,5 C
06.01.2008 11:00 5,6 C 5,7 C 4,0 C 70 % 1010 hPa 0,0 l/m 6,4 m/s (4 Bft) W-SW 0,50 h 22,5 klux 0,6 C -3,3 C
06.01.2008 12:00 5,5 C 5,8 C 4,0 C 64 % 1011 hPa 0,0 l/m 7,0 m/s (4 Bft) W-SW 0,33 h 18,1 klux -0,6 C -4,2 C
06.01.2008 13:00 4,9 C 5,3 C 3,0 C 66 % 1012 hPa 0,0 l/m 6,4 m/s (4 Bft) W-SW 0,17 h 12,2 klux -1,0 C -4,2 C
06.01.2008 14:00 4,9 C 5,1 C 2,9 C 66 % 1013 hPa 0,0 l/m 4,3 m/s (3 Bft) W-SW 0,33 h 12,6 klux -0,9 C -1,2 C
06.01.2008 15:00 5,1 C 4,8 C 2,7 C 63 % 1013 hPa 0,0 l/m 2,9 m/s (2 Bft) W 0,92 h 12,7 klux -1,3 C 1,8 C
06.01.2008 16:00 3,9 C 4,0 C 1,5 C 66 % 1014 hPa 0,0 l/m 2,8 m/s (2 Bft) W-SW 0,42 h 1,65 klux -2,0 C 1,0 C
06.01.2008 17:00 1,2 C 2,0 C -0,7 C 77 % 1015 hPa 0,0 l/m 0,1 m/s (0 Bft) W-SW 0,00 h 18 lux -2,4 C 1,2 C
06.01.2008 18:00 -0,5 C 0,1 C -1,8 C 85 % 1015 hPa 0,0 l/m 0,0 m/s (0 Bft) N 0,00 h 0 lux -2,7 C -0,5 C
06.01.2008 19:00 -1,4 C -1,0 C -2,2 C 88 % 1016 hPa 0,0 l/m 0,0 m/s (0 Bft) N 0,00 h 0 lux -3,1 C -1,4 C
06.01.2008 20:00 -1,9 C -1,8 C -2,3 C 90 % 1016 hPa 0,0 l/m 0,0 m/s (0 Bft) N 0,00 h 0 lux -3,4 C -1,9 C
06.01.2008 21:00 -2,6 C -2,4 C -2,8 C 91 % 1016 hPa 0,0 l/m 0,0 m/s (0 Bft) N 0,00 h 0 lux -3,9 C -2,6 C
06.01.2008 22:00 -2,8 C -2,9 C -3,2 C 92 % 1015 hPa 0,0 l/m 0,0 m/s (0 Bft) N 0,00 h 0 lux -3,9 C -2,8 C
06.01.2008 23:00 -3,3 C -3,4 C -3,5 C 92 % 1015 hPa 0,0 l/m 0,0 m/s (0 Bft) N 0,00 h 0 lux -4,4 C -3,3 C
Min-Datum _ 02.01.08 02.01.08 02.01.08 03.01.08 06.01.08 - 31.12.07 - - - 03.01.08 03.01.08
_ Min-Zeit 02:32 02:22 02:12 14:02 01:47 - 02:37 - - - 04:52 06:27
Minimum _ -4,5 C -4,2 C -5,0 C 48 % 1002 hPa - 0,0 m/s (0 Bft) - - - -10,8 C -17,5 C
Max-Datum _ 06.01.08 06.01.08 06.01.08 31.12.07 31.12.07 05.01.08 06.01.08 - 31.12.07 06.01.08 06.01.08 05.01.08
_ Max-Zeit 12:27 12:32 12:27 07:47 10:57 10:02 11:17 - 10:47 12:27 03:17 14:07
Maximum _ 6,4 C 6,2 C 4,9 C 95 % 1028 hPa 2,5 l/m 9,9 m/s
W-SW (5 Bft)
- 0,08 h 39,2 klux 3,5 C 5,4 C
Durchschnitt _ -0,2 C -0,2 C -1,2 C 77 % 1015 hPa #13,0 l/m 2,3 m/s (2 Bft) O-SO #9:35 h 2,94 klux -3,9 C -3,5 C